Time;durP1;ratioP1;P1;durP2;ratioP2;P2;SDS_P1;SDS_P2;PMS_P1;PMS_P2;Temp;Humidity;BMP_temperature;BMP_pressure;BME280_temperature;BME280_humidity;BME280_pressure;Samples;Min_cycle;Max_cycle;Signal;HPM_P1;HPM_P2
2022/12/25 00:01:42;;;;;;;8.38;3.58;;;;;;;19.05;44.44;101349.66;4981880;28;20525;-69
2022/12/25 00:04:07;;;;;;;6.95;2.55;;;;;;;19.03;44.50;101347.16;4981477;28;20523;-69
2022/12/25 00:06:32;;;;;;;8.40;3.15;;;;;;;19.08;44.60;101353.88;4994751;28;20030;-71
2022/12/25 00:08:57;;;;;;;7.80;2.60;;;;;;;19.03;44.54;101346.31;4982407;28;20085;-70
2022/12/25 00:11:23;;;;;;;6.82;2.78;;;;;;;19.03;44.60;101348.97;4992752;28;20260;-69
2022/12/25 00:13:48;;;;;;;8.52;2.72;;;;;;;19.05;44.62;101348.84;4981362;28;20046;-69
2022/12/25 00:16:16;;;;;;;7.88;2.97;;;;;;;18.97;44.36;101344.97;4981562;28;20054;-70
2022/12/25 00:18:42;;;;;;;8.02;3.00;;;;;;;19.03;44.66;101355.06;4983814;28;20022;-72
2022/12/25 00:21:07;;;;;;;6.55;2.33;;;;;;;19.01;44.32;101354.34;5004199;28;20520;-69
2022/12/25 00:23:33;;;;;;;6.05;2.70;;;;;;;18.99;44.65;101351.00;4997035;28;20130;-68
2022/12/25 00:26:03;;;;;;;7.43;2.83;;;;;;;18.98;44.47;101348.47;4984897;28;20057;-74
2022/12/25 00:28:28;;;;;;;8.35;2.50;;;;;;;18.99;44.65;101350.16;4998482;28;20044;-73
2022/12/25 00:30:54;;;;;;;7.72;2.53;;;;;;;18.94;44.72;101344.38;5004061;28;20029;-71
2022/12/25 00:33:19;;;;;;;8.07;2.55;;;;;;;18.96;44.68;101343.31;5001828;28;20037;-70
2022/12/25 00:35:55;;;;;;;6.07;2.60;;;;;;;18.93;44.70;101337.41;4985538;28;20050;-67
2022/12/25 00:38:21;;;;;;;6.68;2.70;;;;;;;18.94;44.68;101341.75;4984136;28;20038;-70
2022/12/25 00:40:46;;;;;;;7.15;2.20;;;;;;;18.93;44.59;101342.69;4994872;28;20037;-69
2022/12/25 00:43:11;;;;;;;8.93;2.83;;;;;;;18.92;44.65;101335.75;4989684;28;20085;-69
2022/12/25 00:45:36;;;;;;;6.32;2.53;;;;;;;18.92;44.86;101333.94;5000486;28;20033;-71
2022/12/25 00:48:02;;;;;;;7.30;2.40;;;;;;;18.93;44.71;101338.25;4993414;28;20045;-73
2022/12/25 00:50:27;;;;;;;7.00;2.30;;;;;;;18.89;44.71;101338.63;4984974;28;20039;-69
2022/12/25 00:52:53;;;;;;;6.55;2.65;;;;;;;18.88;44.83;101342.22;4988467;28;20482;-69
2022/12/25 00:55:18;;;;;;;6.18;2.20;;;;;;;18.91;44.66;101349.91;4995111;28;20026;-70
2022/12/25 00:57:43;;;;;;;6.75;2.50;;;;;;;18.87;44.86;101336.09;5003390;28;20379;-69
2022/12/25 01:00:09;;;;;;;5.82;2.58;;;;;;;18.90;44.68;101332.34;4999123;28;20046;-69
2022/12/25 01:02:34;;;;;;;6.35;2.60;;;;;;;18.88;44.89;101331.66;4987053;28;20041;-69
2022/12/25 01:04:59;;;;;;;6.28;2.60;;;;;;;18.86;44.67;101331.75;4997306;28;20050;-71
2022/12/25 01:07:25;;;;;;;6.50;2.25;;;;;;;18.82;44.84;101325.84;5003527;28;20034;-71
2022/12/25 01:12:38;;;;;;;6.68;2.13;;;;;;;18.81;44.83;101315.41;4989698;28;20994;-68
2022/12/25 01:15:06;;;;;;;8.65;2.53;;;;;;;18.83;44.91;101324.03;4993234;28;20034;-71
2022/12/25 01:17:32;;;;;;;6.18;2.40;;;;;;;18.83;44.71;101327.53;4987084;28;20058;-73
2022/12/25 01:19:57;;;;;;;6.43;2.28;;;;;;;18.81;44.72;101323.31;4983902;28;20057;-69
2022/12/25 01:22:23;;;;;;;8.55;2.42;;;;;;;18.79;44.72;101318.16;4993777;28;20038;-72
2022/12/25 01:24:48;;;;;;;5.32;2.30;;;;;;;18.78;44.91;101319.09;4992636;28;20134;-70
2022/12/25 01:27:13;;;;;;;6.22;2.17;;;;;;;18.77;44.91;101314.81;5003010;28;20217;-69
2022/12/25 01:29:38;;;;;;;6.07;2.40;;;;;;;18.80;44.81;101332.19;4993435;28;20065;-69
2022/12/25 01:32:04;;;;;;;6.78;2.40;;;;;;;18.79;44.72;101338.44;4986298;28;20045;-68
2022/12/25 01:34:30;;;;;;;6.20;2.20;;;;;;;18.78;45.09;101345.50;4999813;28;20417;-71
2022/12/25 01:36:55;;;;;;;6.72;2.28;;;;;;;18.77;44.51;101348.28;4987086;28;20026;-72
2022/12/25 01:39:20;;;;;;;7.30;2.30;;;;;;;18.78;44.95;101345.50;4998907;28;20036;-68
2022/12/25 01:41:47;;;;;;;5.65;2.03;;;;;;;18.73;45.11;101336.28;4984482;28;20038;-69
2022/12/25 01:44:15;;;;;;;4.78;2.47;;;;;;;18.73;44.89;101338.91;4993126;28;20061;-73
2022/12/25 01:46:42;;;;;;;5.75;2.25;;;;;;;18.75;44.88;101352.84;4992609;28;20038;-70
2022/12/25 01:49:07;;;;;;;6.72;2.25;;;;;;;18.75;44.96;101358.94;4995894;28;20460;-72
2022/12/25 01:51:40;;;;;;;6.57;2.10;;;;;;;18.73;45.13;101358.22;4985512;28;20045;-69
2022/12/25 01:54:11;;;;;;;6.03;2.00;;;;;;;18.71;45.19;101361.94;4983246;28;20033;-69
2022/12/25 01:56:38;;;;;;;5.72;2.08;;;;;;;18.68;45.04;101360.38;4983255;28;20038;-74
2022/12/25 01:59:06;;;;;;;4.75;2.13;;;;;;;18.68;44.96;101371.78;4992773;28;20038;-70
2022/12/25 02:01:31;;;;;;;5.97;1.83;;;;;;;18.68;44.83;101368.31;4997786;28;20037;-69
2022/12/25 02:04:05;;;;;;;5.78;2.20;;;;;;;18.67;45.07;101370.09;4988174;28;20030;-69
2022/12/25 02:06:33;;;;;;;5.65;1.85;;;;;;;18.65;44.87;101369.38;4996481;28;20490;-70
2022/12/25 02:08:58;;;;;;;5.05;2.20;;;;;;;18.70;45.00;101376.09;4991225;28;20064;-72
2022/12/25 02:14:07;;;;;;;5.55;1.83;;;;;;;18.70;45.21;101376.09;4995674;28;20484;-69
2022/12/25 02:16:38;;;;;;;6.03;2.13;;;;;;;18.68;45.04;101368.31;4998167;28;20050;-68
2022/12/25 02:19:18;;;;;;;4.85;1.77;;;;;;;18.62;45.24;101364.31;4987077;28;20038;-72
2022/12/25 02:21:55;;;;;;;6.40;1.98;;;;;;;18.66;45.25;101378.97;5002169;28;20105;-68
2022/12/25 02:24:32;;;;;;;5.70;2.00;;;;;;;18.66;45.11;101376.34;4994259;28;20553;-72
2022/12/25 02:27:13;;;;;;;6.28;1.83;;;;;;;18.63;45.20;101376.56;4982918;28;20466;-68
2022/12/25 02:29:51;;;;;;;4.93;1.98;;;;;;;18.64;45.25;101380.03;4986943;28;20038;-68
2022/12/25 02:32:26;;;;;;;6.10;1.85;;;;;;;18.65;45.15;101373.81;4984968;28;20026;-71
2022/12/25 02:35:08;;;;;;;5.13;1.60;;;;;;;18.62;45.10;101369.59;4982498;28;20054;-72
2022/12/25 02:37:48;;;;;;;5.65;1.50;;;;;;;18.62;45.11;101363.47;4988889;28;20113;-70
2022/12/25 02:40:39;;;;;;;5.35;1.80;;;;;;;18.60;45.04;101355.69;4995339;28;20042;-69
2022/12/25 03:08:44;;;;;;;4.90;1.73;;;;;;;18.56;45.40;101314.63;4981872;28;20053;-68
2022/12/25 03:11:29;;;;;;;5.65;2.08;;;;;;;18.56;45.22;101311.97;4983227;28;20042;-69
2022/12/25 03:16:49;;;;;;;4.93;1.73;;;;;;;18.59;45.17;101295.06;5001268;28;20056;-69
2022/12/25 03:16:49;;;;;;;5.82;1.77;;;;;;;18.56;45.45;101287.38;4981922;28;20038;-69
2022/12/25 03:27:32;;;;;;;;;;;;;;;18.61;45.17;101282.59;4982252;28;20105;-69
2022/12/25 03:33:29;;;;;;;5.90;1.75;;;;;;;18.57;44.97;101275.88;4986008;28;20549;-69
2022/12/25 03:36:06;;;;;;;4.53;2.65;;;;;;;18.52;45.04;101265.69;4976647;28;20054;-69
2022/12/25 04:37:19;;;;;;;4.30;1.70;;;;;;;18.31;45.23;101249.69;4993531;28;20089;-70
2022/12/25 04:39:44;;;;;;;4.13;1.75;;;;;;;18.38;45.10;101264.06;5002990;28;20034;-69
2022/12/25 04:42:09;;;;;;;3.22;1.30;;;;;;;18.37;45.07;101258.91;4997764;28;20026;-68
2022/12/25 04:44:34;;;;;;;4.47;1.40;;;;;;;18.41;45.14;101268.28;4989796;28;20097;-68
2022/12/25 04:47:00;;;;;;;4.70;1.40;;;;;;;18.40;44.72;101263.97;4991405;28;20034;-68
2022/12/25 04:49:25;;;;;;;3.25;1.20;;;;;;;18.39;45.07;101257.00;4984373;28;20280;-70
2022/12/25 04:51:51;;;;;;;3.13;1.20;;;;;;;18.38;45.19;101252.69;4997275;28;20041;-68
2022/12/25 04:54:16;;;;;;;3.53;1.30;;;;;;;18.39;44.97;101257.84;4990852;28;20073;-69
2022/12/25 04:56:41;;;;;;;3.80;1.20;;;;;;;18.39;45.12;101255.22;4984698;28;20061;-69
2022/12/25 04:59:07;;;;;;;5.90;1.70;;;;;;;18.39;44.93;101257.00;5003653;28;20034;-69
2022/12/25 05:01:32;;;;;;;3.33;1.17;;;;;;;18.37;45.06;101240.44;4985391;28;20113;-69
2022/12/25 05:03:57;;;;;;;4.13;1.10;;;;;;;18.39;45.09;101236.75;4984303;28;20395;-71
2022/12/25 05:06:23;;;;;;;4.05;1.40;;;;;;;18.34;44.97;101244.19;4984128;28;20529;-72
2022/12/25 05:08:48;;;;;;;3.05;1.30;;;;;;;18.37;45.04;101240.44;4984101;28;20213;-71
2022/12/25 05:11:14;;;;;;;3.60;1.48;;;;;;;18.34;45.05;101236.25;4998985;28;20065;-69
2022/12/25 05:13:40;;;;;;;4.32;1.40;;;;;;;18.36;44.90;101230.84;5001063;28;20034;-68
2022/12/25 05:16:12;;;;;;;4.25;1.30;;;;;;;18.36;45.18;101236.09;5003435;28;20041;-68
2022/12/25 05:18:37;;;;;;;3.80;1.20;;;;;;;18.32;44.93;101238.16;5003669;28;20095;-73
2022/12/25 05:21:03;;;;;;;3.45;1.17;;;;;;;18.33;45.26;101239.84;4989973;28;20038;-73
2022/12/25 05:23:29;;;;;;;3.03;1.23;;;;;;;18.33;45.13;101233.72;5002893;28;20509;-73
2022/12/25 05:25:54;;;;;;;3.97;1.40;;;;;;;18.32;45.08;101230.22;4992586;28;20033;-71
2022/12/25 05:28:19;;;;;;;4.22;1.15;;;;;;;18.36;45.00;101230.84;4994764;28;20037;-70
2022/12/25 05:30:45;;;;;;;3.90;1.20;;;;;;;18.35;45.29;101222.09;4990202;28;20117;-74
2022/12/25 05:33:10;;;;;;;3.70;1.30;;;;;;;18.34;45.17;101206.38;4984684;28;20053;-71
2022/12/25 05:35:37;;;;;;;3.67;1.23;;;;;;;18.30;45.03;101188.13;4994942;28;20121;-72
2022/12/25 05:38:03;;;;;;;3.58;1.30;;;;;;;18.33;45.06;101188.88;4994579;28;20038;-71
2022/12/25 05:40:28;;;;;;;4.40;1.23;;;;;;;18.33;44.81;101199.44;4995344;28;20046;-73
2022/12/25 05:42:53;;;;;;;3.58;1.00;;;;;;;18.30;45.00;101203.97;4989346;28;20100;-69
2022/12/25 05:45:19;;;;;;;3.40;1.20;;;;;;;18.32;45.07;101206.50;4994324;28;20165;-72
2022/12/25 05:47:44;;;;;;;4.03;1.38;;;;;;;18.29;45.32;101204.94;4998167;28;20267;-69
2022/12/25 05:50:10;;;;;;;3.67;1.20;;;;;;;18.31;45.23;101199.56;4999091;28;20471;-70
2022/12/25 05:52:35;;;;;;;3.45;1.10;;;;;;;18.29;45.06;101210.22;4999911;28;20037;-70
2022/12/25 05:55:00;;;;;;;4.15;1.30;;;;;;;18.32;45.08;101214.41;4997596;28;20425;-69
2022/12/25 05:57:30;;;;;;;4.32;1.20;;;;;;;18.27;45.15;101200.72;4994378;28;20069;-69
2022/12/25 05:59:56;;;;;;;2.75;1.00;;;;;;;18.29;45.17;101204.94;4993660;28;20092;-68
2022/12/25 06:02:21;;;;;;;3.80;1.20;;;;;;;18.31;45.28;101202.19;4996666;28;20038;-73
2022/12/25 06:04:46;;;;;;;4.05;1.33;;;;;;;18.30;44.99;101184.66;4994700;28;20057;-69
2022/12/25 06:07:12;;;;;;;3.72;1.10;;;;;;;18.32;45.34;101195.94;4992516;28;20030;-71
2022/12/25 06:09:37;;;;;;;2.33;1.10;;;;;;;18.29;45.32;101177.69;4999806;28;20838;-71
2022/12/25 06:12:03;;;;;;;2.75;1.02;;;;;;;18.37;45.45;101187.66;4990585;28;20049;-70
2022/12/25 06:14:28;;;;;;;2.78;0.90;;;;;;;18.37;45.22;101180.59;4989966;28;20030;-70
2022/12/25 06:16:54;;;;;;;3.05;1.15;;;;;;;18.39;45.38;101183.09;4995769;28;20459;-72
2022/12/25 06:19:20;;;;;;;3.78;1.30;;;;;;;18.39;45.50;101170.78;4988493;28;20034;-70
2022/12/25 06:21:46;;;;;;;3.00;0.95;;;;;;;18.45;45.47;101162.38;4988260;28;20041;-72
2022/12/25 06:24:11;;;;;;;2.85;0.98;;;;;;;18.48;45.34;101161.28;4986025;28;20394;-69
2022/12/25 06:26:37;;;;;;;4.47;1.13;;;;;;;18.54;45.46;101152.06;4995186;28;20038;-70
2022/12/25 06:29:02;;;;;;;4.13;1.23;;;;;;;18.57;45.28;101160.56;4994682;28;20065;-69
2022/12/25 06:31:28;;;;;;;3.40;1.08;;;;;;;18.61;45.57;101164.66;4998420;28;20042;-71
2022/12/25 06:33:54;;;;;;;2.47;0.90;;;;;;;18.62;45.26;101157.56;4996205;28;20034;-71
2022/12/25 06:36:22;;;;;;;2.72;0.80;;;;;;;18.70;45.30;101163.09;4996184;28;20128;-71
2022/12/25 06:38:48;;;;;;;2.83;0.85;;;;;;;18.65;45.31;101137.06;4988199;28;20581;-70
2022/12/25 06:41:16;;;;;;;3.15;0.90;;;;;;;18.74;45.17;101147.84;4990161;28;20038;-69
2022/12/25 06:43:41;;;;;;;3.42;0.90;;;;;;;18.77;45.17;101137.03;4993126;28;20067;-72
2022/12/25 06:46:10;;;;;;;2.20;0.90;;;;;;;18.78;45.28;101126.34;4991863;28;20116;-69
2022/12/25 06:48:36;;;;;;;3.38;1.00;;;;;;;18.79;45.29;101128.03;4993449;28;20030;-71
2022/12/25 06:51:03;;;;;;;2.55;0.98;;;;;;;18.79;45.05;101122.75;4993216;28;20045;-73
2022/12/25 06:53:29;;;;;;;3.05;1.00;;;;;;;18.79;45.17;101101.63;4998577;28;20059;-71
2022/12/25 06:56:04;;;;;;;3.15;0.90;;;;;;;18.81;45.13;101099.72;4987923;28;20149;-72
2022/12/25 06:58:29;;;;;;;2.30;0.80;;;;;;;18.81;45.10;101086.50;4994576;28;20905;-69
2022/12/25 07:00:56;;;;;;;2.58;0.75;;;;;;;18.87;45.09;101094.91;4998275;28;20033;-70
2022/12/25 07:03:22;;;;;;;3.42;1.15;;;;;;;18.82;45.12;101092.66;4994183;28;20474;-69
2022/12/25 07:05:47;;;;;;;2.25;0.85;;;;;;;18.80;45.38;101095.41;4988899;28;20104;-71
2022/12/25 07:08:13;;;;;;;2.72;0.95;;;;;;;18.87;45.01;101097.56;4991950;28;20022;-74
2022/12/25 07:10:38;;;;;;;3.30;0.82;;;;;;;18.83;44.97;101092.53;5002203;28;20037;-73
2022/12/25 07:13:04;;;;;;;3.97;0.90;;;;;;;18.82;45.12;101096.13;4983989;28;20046;-70
2022/12/25 07:15:29;;;;;;;1.88;0.70;;;;;;;18.83;45.36;101099.59;4997388;28;20080;-69
2022/12/25 07:17:54;;;;;;;2.33;0.80;;;;;;;18.84;45.32;101094.22;4996531;28;20030;-73
2022/12/25 07:20:20;;;;;;;2.53;0.85;;;;;;;18.87;45.14;101108.13;4980168;28;20061;-73
2022/12/25 07:22:45;;;;;;;1.98;0.80;;;;;;;18.81;45.29;101114.72;5000115;28;20091;-69
2022/12/25 07:25:10;;;;;;;2.08;0.80;;;;;;;18.84;45.24;101125.06;5001287;28;20046;-69
2022/12/25 07:27:35;;;;;;;1.57;0.67;;;;;;;18.85;45.16;101137.31;4992043;28;20037;-69
2022/12/25 07:30:01;;;;;;;1.88;0.75;;;;;;;18.85;45.15;101143.44;4989979;28;20316;-68
2022/12/25 07:32:29;;;;;;;3.08;0.95;;;;;;;18.81;45.37;101134.03;4986120;28;20042;-73
2022/12/25 07:34:54;;;;;;;1.70;0.63;;;;;;;18.85;45.19;101142.59;4999203;28;20056;-69
2022/12/25 07:37:20;;;;;;;1.88;0.75;;;;;;;18.82;45.05;101143.66;4986455;28;20407;-69
2022/12/25 07:39:45;;;;;;;3.85;0.90;;;;;;;18.83;45.04;101132.13;4992227;28;20113;-71
2022/12/25 07:42:10;;;;;;;2.03;0.75;;;;;;;18.85;45.24;101119.66;4989607;28;20065;-69
2022/12/25 07:44:36;;;;;;;2.30;0.70;;;;;;;18.82;45.07;101096.13;4985710;28;20685;-72
2022/12/25 07:47:01;;;;;;;2.75;1.08;;;;;;;18.84;45.23;101098.66;4993506;28;20042;-68
2022/12/25 07:49:26;;;;;;;1.92;0.80;;;;;;;18.83;45.50;101108.38;4991691;28;20065;-68
2022/12/25 07:51:51;;;;;;;1.98;0.75;;;;;;;18.82;45.37;101108.50;5003457;28;20068;-69
2022/12/25 07:54:17;;;;;;;3.25;0.90;;;;;;;18.84;45.11;101125.91;4992291;28;20406;-73
2022/12/25 07:56:42;;;;;;;2.95;0.80;;;;;;;18.83;45.33;101129.50;4994174;28;20041;-72
2022/12/25 07:59:07;;;;;;;3.63;0.88;;;;;;;18.84;45.34;101140.91;4985355;28;20040;-69
2022/12/25 08:01:33;;;;;;;2.38;0.90;;;;;;;18.83;45.29;101155.91;5000530;28;20049;-70
2022/12/25 08:04:00;;;;;;;3.40;0.90;;;;;;;18.82;45.23;101161.31;4993117;28;20065;-70
2022/12/25 08:06:29;;;;;;;2.78;0.90;;;;;;;18.82;45.26;101164.78;4992093;28;20034;-72
2022/12/25 08:09:01;;;;;;;2.45;1.00;;;;;;;18.80;45.25;101161.41;4984997;28;20031;-71
2022/12/25 08:11:26;;;;;;;1.95;0.75;;;;;;;18.84;44.98;101162.03;4989498;28;20124;-68
2022/12/25 08:13:51;;;;;;;2.90;0.93;;;;;;;18.82;45.11;101172.69;5000476;28;20125;-69
2022/12/25 08:16:17;;;;;;;4.15;0.85;;;;;;;18.83;45.05;101192.88;5000587;28;20084;-69
2022/12/25 08:18:42;;;;;;;2.55;1.00;;;;;;;18.83;45.26;101197.28;4999868;28;20043;-68
2022/12/25 08:21:13;;;;;;;2.80;0.90;;;;;;;18.82;45.34;101204.38;4993532;28;20077;-67
2022/12/25 08:23:43;;;;;;;1.90;0.77;;;;;;;18.79;45.38;101183.50;4989701;28;20096;-71
2022/12/25 08:26:12;;;;;;;2.28;0.77;;;;;;;18.83;45.47;101166.47;4990842;28;20037;-70
2022/12/25 08:28:38;;;;;;;3.15;0.93;;;;;;;18.74;45.51;101148.69;4997306;28;20037;-71
2022/12/25 08:31:23;;;;;;;2.35;0.75;;;;;;;18.82;45.96;101167.41;5004029;28;20034;-74
2022/12/25 08:33:48;;;;;;;;;;;;;;;18.93;45.81;101178.94;5004865;28;20061;-70
2022/12/25 08:36:15;;;;;;;2.72;0.90;;;;;;;18.94;46.09;101184.09;4987568;28;20358;-69
2022/12/25 08:38:41;;;;;;;3.58;1.00;;;;;;;18.94;45.98;101175.34;4994367;28;20037;-70
2022/12/25 08:41:07;;;;;;;3.78;0.95;;;;;;;18.95;46.13;101187.59;4990872;28;20145;-70
2022/12/25 08:43:33;;;;;;;2.65;1.00;;;;;;;18.97;46.21;101189.13;4983769;28;20062;-68
2022/12/25 08:45:58;;;;;;;2.80;0.90;;;;;;;18.97;46.03;101197.06;4984730;28;20069;-71
2022/12/25 08:48:23;;;;;;;4.70;1.00;;;;;;;18.97;46.20;101197.06;4997227;28;20037;-69
2022/12/25 08:50:51;;;;;;;4.15;1.02;;;;;;;18.95;46.05;101190.25;4990129;28;20799;-70
2022/12/25 08:53:16;;;;;;;2.63;0.80;;;;;;;19.01;46.26;101189.75;4984852;28;20034;-74
2022/12/25 08:55:42;;;;;;;3.53;1.08;;;;;;;19.00;46.18;101182.78;4998110;28;20157;-70
2022/12/25 08:58:07;;;;;;;3.42;1.02;;;;;;;18.98;46.14;101174.97;4988920;28;20037;-66
2022/12/25 09:00:33;;;;;;;3.22;1.00;;;;;;;19.03;46.16;101174.63;5002760;28;20061;-69
2022/12/25 09:02:58;;;;;;;2.80;1.02;;;;;;;19.05;46.40;101167.41;5000674;28;20116;-69
2022/12/25 09:05:24;;;;;;;4.50;1.13;;;;;;;19.10;46.37;101162.59;4999067;28;20034;-70
2022/12/25 09:07:49;;;;;;;3.33;1.15;;;;;;;19.14;46.55;101160.56;4993968;28;20276;-73
2022/12/25 09:10:14;;;;;;;5.57;1.20;;;;;;;19.19;47.48;101158.38;4996671;28;20588;-71
2022/12/25 09:12:40;;;;;;;6.65;1.80;;;;;;;19.22;47.97;101144.91;4983481;28;20383;-71
2022/12/25 09:15:05;;;;;;;6.82;1.73;;;;;;;19.24;47.88;101156.19;4983330;28;20533;-76
2022/12/25 09:17:31;;;;;;;6.25;1.83;;;;;;;19.29;48.04;101171.69;4990667;28;20041;-74
2022/12/25 09:19:57;;;;;;;7.57;1.77;;;;;;;19.25;48.33;101165.81;4993672;28;20037;-73
2022/12/25 09:22:22;;;;;;;7.43;1.67;;;;;;;19.30;48.20;101183.94;4993094;28;20425;-73
2022/12/25 09:24:47;;;;;;;6.13;2.20;;;;;;;19.32;48.37;101187.28;4995053;28;20375;-73
2022/12/25 09:27:13;;;;;;;6.70;1.60;;;;;;;19.31;48.41;101169.75;4994794;28;20193;-74
2022/12/25 09:29:39;;;;;;;7.05;2.38;;;;;;;19.30;48.18;101162.81;4988579;28;20041;-75
2022/12/25 09:32:05;;;;;;;5.45;1.58;;;;;;;19.30;48.33;101160.16;4999112;28;20052;-72
2022/12/25 09:34:30;;;;;;;7.43;1.95;;;;;;;19.30;48.35;101162.81;4994467;28;20137;-74
2022/12/25 09:36:56;;;;;;;5.13;1.70;;;;;;;19.28;48.23;101148.84;4991696;28;20496;-70
2022/12/25 09:39:22;;;;;;;7.20;1.90;;;;;;;19.29;48.12;101132.03;4987175;28;20042;-71
2022/12/25 09:42:12;;;;;;;4.93;1.73;;;;;;;19.29;48.12;101129.41;4998154;28;20026;-69
2022/12/25 09:44:46;;;;;;;5.75;1.42;;;;;;;19.25;48.10;101135.88;4991004;28;20061;-69
2022/12/25 09:47:19;;;;;;;5.32;1.52;;;;;;;19.24;48.01;101137.69;4993000;28;20117;-77
2022/12/25 09:49:57;;;;;;;4.20;1.60;;;;;;;19.28;48.01;101152.34;4998235;28;20046;-72
2022/12/25 09:52:35;;;;;;;4.43;1.40;;;;;;;19.27;48.27;101148.03;4986345;28;20037;-69
2022/12/25 09:55:19;;;;;;;4.50;1.63;;;;;;;19.26;48.06;101127.84;4991418;28;20046;-71
2022/12/25 09:57:48;;;;;;;4.63;1.45;;;;;;;19.20;47.88;101118.63;4985759;28;20038;-76
2022/12/25 10:00:23;;;;;;;4.45;1.70;;;;;;;19.21;48.06;101130.84;5001133;28;20030;-73
2022/12/25 10:02:57;;;;;;;5.22;1.48;;;;;;;19.23;48.06;101129.91;5000400;28;20036;-70
2022/12/25 10:05:37;;;;;;;6.00;1.48;;;;;;;19.22;48.20;101115.84;4982807;28;20034;-71
2022/12/25 10:08:14;;;;;;;4.43;1.38;;;;;;;19.16;48.22;101106.63;4983332;28;20045;-71
2022/12/25 10:10:58;;;;;;;3.63;1.33;;;;;;;19.18;48.01;101106.50;4987194;28;20111;-71
2022/12/25 10:13:51;;;;;;;5.43;1.88;;;;;;;19.18;48.26;101106.50;4992984;28;20034;-72
2022/12/25 10:16:24;;;;;;;5.05;1.60;;;;;;;19.18;48.24;101099.41;4984242;28;20072;-71
2022/12/25 10:19:20;;;;;;;4.67;1.70;;;;;;;19.19;48.17;101101.09;4994996;28;20045;-73
2022/12/25 10:21:47;;;;;;;4.72;1.58;;;;;;;19.18;48.17;101107.34;4995504;28;20290;-71
2022/12/25 10:24:21;;;;;;;3.75;1.33;;;;;;;19.20;48.24;101099.25;4984070;28;20034;-76
2022/12/25 10:26:48;;;;;;;;;;;;;;;19.28;47.93;101103.94;4990096;28;20034;-73
2022/12/25 10:29:18;;;;;;;3.95;1.27;;;;;;;19.21;47.98;101093.84;4987795;28;19920;-71
2022/12/25 10:31:54;;;;;;;4.22;1.40;;;;;;;19.23;48.02;101098.19;4982477;28;20030;-71
2022/12/25 10:34:20;;;;;;;5.15;1.52;;;;;;;19.18;47.93;101098.56;4986193;28;20099;-69
2022/12/25 10:36:46;;;;;;;5.80;1.80;;;;;;;19.21;48.05;101101.78;4989788;28;20030;-73
2022/12/25 10:39:21;;;;;;;3.30;1.20;;;;;;;19.17;48.08;101095.09;4990545;28;20421;-69
2022/12/25 10:41:53;;;;;;;;;;;;;;;19.25;48.00;101099.75;4996881;28;20042;-70
2022/12/25 10:44:20;;;;;;;6.93;1.90;;;;;;;19.24;47.93;101098.06;5000434;28;19913;-70
2022/12/25 10:46:55;;;;;;;4.93;1.60;;;;;;;19.17;48.29;101092.44;4990328;28;20034;-70
2022/12/25 10:49:23;;;;;;;5.85;1.30;;;;;;;19.18;47.94;101082.72;4988964;28;20034;-69
2022/12/25 10:51:49;;;;;;;5.07;1.52;;;;;;;19.19;48.30;101079.94;4984863;28;20169;-69
2022/12/25 10:54:27;;;;;;;3.90;1.48;;;;;;;19.18;48.34;101065.06;4999731;28;20425;-69
2022/12/25 10:57:02;;;;;;;4.90;1.33;;;;;;;19.15;48.33;101052.13;4993980;28;20033;-73
2022/12/25 10:59:32;;;;;;;5.85;1.80;;;;;;;19.18;48.26;101048.38;5000563;28;20034;-69
2022/12/25 11:02:11;;;;;;;4.30;1.42;;;;;;;19.18;48.06;101051.00;4988084;28;20065;-71
2022/12/25 11:04:37;;;;;;;3.88;1.33;;;;;;;19.17;48.22;101046.72;4987494;28;20057;-68
2022/12/25 11:07:06;;;;;;;5.30;1.42;;;;;;;19.16;47.94;101050.31;4999059;28;20030;-71
2022/12/25 11:09:32;;;;;;;4.57;1.40;;;;;;;19.13;47.89;101056.66;4981221;28;20042;-69
2022/12/25 11:11:59;;;;;;;3.83;1.50;;;;;;;19.11;48.08;101053.31;4992026;28;20537;-69
2022/12/25 11:14:26;;;;;;;5.80;1.92;;;;;;;19.15;48.04;101046.84;4981076;28;20475;-72
2022/12/25 11:16:52;;;;;;;4.03;1.63;;;;;;;19.13;47.91;101043.47;4982939;28;20038;-69
2022/12/25 11:19:27;;;;;;;3.53;1.20;;;;;;;19.12;47.82;101036.53;4989059;28;20364;-68
2022/12/25 11:21:55;;;;;;;4.25;1.45;;;;;;;19.13;47.89;101037.34;4982807;28;20390;-67
2022/12/25 11:24:26;;;;;;;3.60;1.33;;;;;;;19.09;48.01;101022.69;5000888;28;20076;-68
2022/12/25 11:26:55;;;;;;;2.92;1.20;;;;;;;19.13;47.83;101009.13;4994392;28;20240;-70
2022/12/25 11:29:39;;;;;;;4.70;1.45;;;;;;;19.15;48.02;101007.22;5000111;28;20046;-68
2022/12/25 11:32:14;;;;;;;3.13;1.23;;;;;;;19.17;47.77;101001.78;5001034;28;20030;-69
2022/12/25 11:34:43;;;;;;;4.15;1.30;;;;;;;19.13;48.07;101003.00;4996483;28;20054;-68
2022/12/25 11:37:19;;;;;;;5.82;1.30;;;;;;;19.13;48.07;100993.25;4991807;28;20149;-69
2022/12/25 11:39:44;;;;;;;5.95;1.63;;;;;;;19.18;48.25;100993.75;4981598;28;20043;-69
2022/12/25 11:42:28;;;;;;;4.82;1.67;;;;;;;19.18;48.45;100991.09;4999442;28;20717;-68
2022/12/25 11:45:02;;;;;;;6.27;1.70;;;;;;;19.17;48.14;100983.31;4988810;28;20046;-67
2022/12/25 11:48:09;;;;;;;3.83;1.40;;;;;;;19.16;48.09;100982.44;4981303;28;20990;-68
2022/12/25 11:50:40;;;;;;;3.50;1.40;;;;;;;19.12;48.32;100973.13;4989056;28;20046;-72
2022/12/25 11:53:21;;;;;;;9.00;1.60;;;;;;;19.15;48.47;100982.56;4985821;28;20312;-70
2022/12/25 11:55:53;;;;;;;5.63;1.77;;;;;;;19.13;48.35;100972.13;4985769;28;20057;-69
2022/12/25 11:58:31;;;;;;;5.18;1.60;;;;;;;19.09;48.42;100959.31;4981351;28;20078;-70
2022/12/25 12:01:00;;;;;;;3.83;1.40;;;;;;;19.08;48.55;100966.41;4995677;28;20147;-68
2022/12/25 12:03:36;;;;;;;3.70;1.42;;;;;;;19.05;48.34;100960.53;4985835;28;20478;-70
2022/12/25 12:06:05;;;;;;;4.05;1.60;;;;;;;19.05;48.56;100966.66;4992150;28;20046;-69
2022/12/25 12:08:33;;;;;;;2.38;1.20;;;;;;;19.08;48.50;100969.03;4989366;28;20046;-73
2022/12/25 12:11:16;;;;;;;4.28;1.60;;;;;;;19.07;48.49;100971.81;4995614;28;20046;-69
2022/12/25 12:13:52;;;;;;;4.22;1.50;;;;;;;19.03;48.70;100969.41;4987735;28;20050;-69
2022/12/25 12:16:17;;;;;;;3.78;1.40;;;;;;;19.06;48.60;100968.34;4982448;28;20072;-72
2022/12/25 12:18:44;;;;;;;4.10;1.55;;;;;;;19.02;48.58;100964.25;4986762;28;20183;-72
2022/12/25 12:21:23;;;;;;;4.78;1.75;;;;;;;19.06;48.46;100959.56;4996436;28;20548;-69
2022/12/25 12:23:56;;;;;;;4.47;1.65;;;;;;;19.01;48.46;100955.50;5004096;28;20067;-68
2022/12/25 12:26:26;;;;;;;4.63;1.50;;;;;;;18.99;48.46;100948.66;4998909;28;20046;-69
2022/12/25 12:28:55;;;;;;;3.70;1.58;;;;;;;19.00;48.51;100948.53;4999159;28;20094;-68
2022/12/25 12:31:21;;;;;;;3.47;1.30;;;;;;;18.98;48.11;100949.66;5001537;28;20132;-73
2022/12/25 12:33:53;;;;;;;4.90;1.70;;;;;;;18.96;48.32;100939.22;4984581;28;20487;-74
2022/12/25 12:36:21;;;;;;;4.05;1.45;;;;;;;18.95;48.36;100928.78;5003504;28;20124;-69
2022/12/25 12:38:48;;;;;;;3.40;1.60;;;;;;;18.94;48.36;100922.66;5002809;28;20117;-72
2022/12/25 12:41:15;;;;;;;5.75;1.70;;;;;;;18.97;48.09;100930.31;4995279;28;20422;-67
2022/12/25 12:43:53;;;;;;;4.05;1.40;;;;;;;18.96;48.45;100927.78;4993950;28;20030;-71
2022/12/25 12:46:23;;;;;;;4.68;1.70;;;;;;;18.94;48.51;100927.94;4984196;28;20057;-70
2022/12/25 12:48:51;;;;;;;4.50;2.15;;;;;;;18.97;48.63;100934.78;4986106;28;20093;-68
2022/12/25 12:51:27;;;;;;;3.63;1.60;;;;;;;18.96;48.43;100927.78;4983937;28;20391;-68
2022/12/25 12:54:19;;;;;;;3.38;1.35;;;;;;;18.97;48.74;100929.47;5000833;28;20034;-69
2022/12/25 12:57:00;;;;;;;3.83;1.60;;;;;;;18.94;48.61;100924.47;4983427;28;20566;-70
2022/12/25 12:59:34;;;;;;;4.65;1.52;;;;;;;18.94;48.63;100916.53;4983176;28;20049;-72
2022/12/25 13:02:23;;;;;;;4.75;1.85;;;;;;;18.94;48.58;100921.81;4995460;28;20034;-69
2022/12/25 13:05:02;;;;;;;4.28;1.70;;;;;;;18.93;48.70;100920.13;4985959;28;20518;-70
2022/12/25 13:07:57;;;;;;;4.07;1.75;;;;;;;18.96;48.57;100923.38;4987344;28;20038;-68
2022/12/25 13:10:31;;;;;;;;;;;;;;;19.01;48.59;100907.97;4996342;28;20378;-68
2022/12/25 13:13:05;;;;;;;4.05;1.73;;;;;;;18.94;48.57;100893.59;4999347;28;19975;-68
2022/12/25 13:15:33;;;;;;;3.92;1.65;;;;;;;18.92;48.33;100881.50;4994942;28;20046;-66
2022/12/25 13:18:05;;;;;;;6.03;1.55;;;;;;;18.93;48.70;100880.50;5002059;28;20037;-69